| time (UTC) | temp C | wind direction | speed KPH | gust KPH | rain 1hr cm | rain 24hr cm | rain mn cm | humidity % | barometer mb |
| 20260905211550 | 12 | 331 | 8.0 | 25.7 | 0.00 | 0.81 | 0.81 | 90 | 1016.8 |
| 20260905210105 | 12 | 284 | 8.0 | 16.1 | 0.00 | 0.81 | 0.81 | 90 | 1016.6 |
| 20260905204546 | 12 | 281 | 6.4 | 17.7 | 0.00 | 0.86 | 0.81 | 90 | 1016.6 |
| 20260905203052 | 12 | 332 | 6.4 | 14.5 | 0.00 | 0.86 | 0.81 | 90 | 1016.4 |
| 20260905201557 | 12 | 261 | 8.0 | 20.9 | 0.00 | 0.86 | 0.81 | 90 | 1016.3 |
| 20260905200106 | 12 | 251 | 6.4 | 17.7 | 0.00 | 0.86 | 0.81 | 90 | 1016.3 |
| 20260905194548 | 12 | 235 | 6.4 | 17.7 | 0.00 | 0.89 | 0.81 | 90 | 1016.2 |
| 20260905193053 | 12 | 290 | 8.0 | 14.5 | 0.00 | 0.89 | 0.81 | 91 | 1016.0 |
| 20260905191550 | 12 | 255 | 8.0 | 17.7 | 0.00 | 0.89 | 0.81 | 90 | 1015.8 |
| 20260905190048 | 12 | 261 | 8.0 | 19.3 | 0.00 | 0.89 | 0.81 | 90 | 1015.6 |
| 20260905184548 | 12 | 323 | 6.4 | 14.5 | 0.00 | 0.89 | 0.81 | 90 | 1015.4 |
| 20260905183051 | 12 | 321 | 6.4 | 16.1 | 0.00 | 0.89 | 0.81 | 91 | 1015.4 |
| 20260905181549 | 12 | 323 | 6.4 | 14.5 | 0.00 | 0.89 | 0.81 | 91 | 1015.3 |
| 20260905180045 | 12 | 278 | 8.0 | 16.1 | 0.00 | 0.89 | 0.81 | 90 | 1015.2 |
| 20260905174559 | 13 | 289 | 4.8 | 14.5 | 0.00 | 1.73 | 0.81 | 89 | 1015.0 |
| 20260905173047 | 13 | 307 | 8.0 | 25.7 | 0.03 | 1.73 | 0.81 | 88 | 1014.9 |
| 20260905171559 | 13 | 321 | 11.3 | 20.9 | 0.18 | 1.73 | 0.81 | 88 | 1015.0 |
| 20260905170056 | 13 | 310 | 8.0 | 19.3 | 0.18 | 1.73 | 0.81 | 91 | 1014.7 |
| 20260905164550 | 13 | 264 | 9.7 | 29.0 | 0.18 | 1.78 | 0.81 | 89 | 1014.8 |
| 20260905163048 | 13 | 264 | 25.7 | 40.2 | 0.13 | 1.75 | 0.76 | 85 | 1014.9 |
| 20260905161550 | 14 | 312 | 6.4 | 9.7 | 0.00 | 1.60 | 0.64 | 85 | 1014.3 |
| 20260905160053 | 14 | 271 | 3.2 | 9.7 | 0.08 | 1.60 | 0.64 | 85 | 1014.0 |
| 20260905154555 | 13 | 295 | 4.8 | 14.5 | 0.10 | 1.60 | 0.64 | 85 | 1014.0 |
| 20260905153047 | 13 | 287 | 4.8 | 14.5 | 0.10 | 1.60 | 0.64 | 85 | 1014.0 |
| 20260905151545 | 15 | 267 | 9.7 | 24.1 | 0.08 | 1.57 | 0.61 | 86 | 1014.3 |
| 20260905150048 | 16 | 305 | 8.0 | 11.3 | 0.00 | 1.50 | 0.53 | 80 | 1014.1 |
| 20260905144553 | 16 | 319 | 6.4 | 14.5 | 0.00 | 1.50 | 0.51 | 78 | 1014.0 |
| 20260905143045 | 16 | 12 | 8.0 | 11.3 | 0.00 | 1.50 | 0.51 | 82 | 1013.9 |
| 20260905141551 | 15 | 326 | 3.2 | 11.3 | 0.46 | 1.50 | 0.51 | 84 | 1014.0 |
| 20260905140052 | 15 | 293 | 9.7 | 24.1 | 0.46 | 1.50 | 0.51 | 83 | 1013.9 |
| 20260905134552 | 15 | 329 | 14.5 | 35.4 | 0.43 | 1.47 | 0.48 | 84 | 1014.1 |
| 20260905133051 | 16 | 284 | 6.4 | 17.7 | 0.43 | 1.47 | 0.48 | 83 | 1013.9 |
| 20260905131548 | 17 | 309 | 6.4 | 16.1 | 0.00 | 1.02 | 0.05 | 76 | 1013.7 |
| 20260905130046 | 17 | 226 | 6.4 | 16.1 | 0.00 | 1.02 | 0.05 | 76 | 1013.7 |
| 20260905124551 | 16 | 261 | 3.2 | 12.9 | 0.00 | 1.02 | 0.05 | 82 | 1013.7 |
| 20260905123051 | 16 | 235 | 4.8 | 12.9 | 0.00 | 1.02 | 0.05 | 83 | 1013.8 |
| 20260905121547 | 15 | 245 | 3.2 | 11.3 | 0.05 | 1.02 | 0.05 | 86 | 1013.9 |
| 20260905120051 | 14 | 283 | 6.4 | 11.3 | 0.05 | 1.02 | 0.05 | 87 | 1014.0 |
| 20260905114606 | 13 | 302 | 4.8 | 20.9 | 0.05 | 1.02 | 0.05 | 85 | 1014.0 |
| 20260905113051 | 15 | 302 | 16.1 | 33.8 | 0.03 | 1.02 | 0.03 | 81 | 1014.4 |
| 20260905111543 | 17 | 296 | 16.1 | 32.2 | 0.00 | 0.97 | 0.00 | 67 | 1013.9 |
| 20260905110051 | 17 | 316 | 11.3 | 27.4 | 0.00 | 0.97 | 0.00 | 71 | 1013.8 |
| 20260905104551 | 18 | 290 | 11.3 | 24.1 | 0.00 | 0.97 | 0.00 | 64 | 1013.6 |
| 20260905103051 | 18 | 202 | 12.9 | 25.7 | 0.00 | 0.97 | 0.00 | 64 | 1013.3 |
| 20260905101547 | 18 | 316 | 14.5 | 27.4 | 0.00 | 0.97 | 0.00 | 63 | 1013.5 |
| 20260905100050 | 18 | 51 | 14.5 | 27.4 | 0.00 | 0.97 | 0.00 | 64 | 1013.5 |
| 20260905094601 | 18 | 287 | 14.5 | 27.4 | 0.00 | 0.97 | 0.00 | 62 | 1013.5 |
| 20260905093045 | 17 | 321 | 12.9 | 32.2 | 0.00 | 0.97 | 0.00 | 66 | 1013.4 |
| 20260905091600 | 17 | 309 | 16.1 | 32.2 | 0.00 | 0.97 | 0.00 | 68 | 1013.4 |
| 20260905090049 | 17 | 271 | 12.9 | 25.7 | 0.00 | 0.97 | 0.00 | 67 | 1013.3 |
| 20260905084547 | 17 | 311 | 14.5 | 30.6 | 0.00 | 0.97 | 0.00 | 68 | 1013.2 |
| 20260905083051 | 17 | 176 | 14.5 | 29.0 | 0.00 | 0.97 | 0.00 | 72 | 1013.1 |
| 20260905081559 | 17 | 2 | 19.3 | 32.2 | 0.00 | 0.97 | 0.00 | 70 | 1012.8 |
| 20260905080056 | 17 | 252 | 20.9 | 33.8 | 0.00 | 0.97 | 0.00 | 70 | 1012.6 |
| 20260905074548 | 16 | 354 | 16.1 | 29.0 | 0.00 | 0.97 | 0.00 | 75 | 1012.6 |
| 20260905073047 | 16 | 331 | 14.5 | 30.6 | 0.00 | 0.97 | 0.00 | 76 | 1012.6 |
| 20260905071558 | 16 | 267 | 14.5 | 27.4 | 0.00 | 0.97 | 0.00 | 78 | 1012.4 |
| 20260905070049 | 15 | 238 | 8.0 | 24.1 | 0.00 | 0.97 | 0.00 | 77 | 1012.2 |
| 20260905064553 | 16 | 248 | 8.0 | 24.1 | 0.00 | 0.97 | 0.00 | 77 | 1012.1 |
| 20260905063050 | 15 | 253 | 12.9 | 27.4 | 0.00 | 0.97 | 0.00 | 77 | 1011.9 |
| 20260905061607 | 16 | 316 | 12.9 | 32.2 | 0.00 | 0.97 | 0.00 | 79 | 1011.8 |
| 20260905060050 | 15 | 275 | 11.3 | 30.6 | 0.00 | 0.97 | 0.00 | 81 | 1011.8 |
| 20260905054549 | 15 | 261 | 12.9 | 27.4 | 0.00 | 0.97 | 0.00 | 82 | 1011.6 |
| 20260905053054 | 15 | 268 | 14.5 | 27.4 | 0.00 | 0.97 | 0.00 | 83 | 1011.3 |
| 20260905051550 | 15 | 303 | 9.7 | 22.5 | 0.00 | 0.97 | 0.00 | 83 | 1011.2 |
| 20260905050048 | 15 | 315 | 11.3 | 19.3 | 0.00 | 0.97 | 0.00 | 84 | 1011.0 |
| 20260905044544 | 14 | 327 | 8.0 | 16.1 | 0.00 | 0.97 | 0.00 | 85 | 1010.9 |
| 20260905043112 | 14 | 307 | 9.7 | 24.1 | 0.00 | 0.97 | 0.00 | 85 | 1010.7 |
| 20260905041548 | 14 | 311 | 6.4 | 17.7 | 0.00 | 0.97 | 0.00 | 86 | 1010.5 |
| 20260905040113 | 14 | 323 | 8.0 | 19.3 | 0.00 | 0.97 | 0.00 | 85 | 1010.3 |
| 20260905034558 | 15 | 294 | 6.4 | 25.7 | 0.00 | 0.97 | 0.00 | 85 | 1010.2 |
| 20260905033053 | 15 | 289 | 8.0 | 14.5 | 0.00 | 0.97 | 0.00 | 85 | 1009.9 |
| 20260905031548 | 15 | 311 | 6.4 | 16.1 | 0.00 | 0.97 | 0.00 | 83 | 1009.9 |
| 20260905030057 | 15 | 245 | 9.7 | 16.1 | 0.00 | 0.97 | 0.00 | 82 | 1009.6 |
| 20260905024550 | 15 | 316 | 9.7 | 19.3 | 0.00 | 0.97 | 0.00 | 81 | 1009.5 |
| 20260905023053 | 15 | 304 | 8.0 | 19.3 | 0.00 | 0.97 | 0.00 | 80 | 1009.4 |
| 20260905021551 | 15 | 304 | 9.7 | 22.5 | 0.00 | 0.97 | 0.00 | 82 | 1009.4 |
| 20260905020054 | 15 | 331 | 8.0 | 19.3 | 0.00 | 0.97 | 0.00 | 81 | 1009.1 |
| 20260905014550 | 15 | 350 | 11.3 | 17.7 | 0.00 | 0.97 | 0.00 | 80 | 1009.2 |
| 20260905013057 | 16 | 310 | 14.5 | 25.7 | 0.00 | 0.97 | 0.00 | 81 | 1009.0 |
| 20260905011548 | 16 | 290 | 9.7 | 25.7 | 0.00 | 0.97 | 0.00 | 83 | 1008.7 |
| 20260905010050 | 16 | 290 | 11.3 | 25.7 | 0.00 | 0.97 | 0.00 | 84 | 1008.8 |
| 20260905004557 | 16 | 301 | 16.1 | 29.0 | 0.00 | 0.97 | 0.00 | 84 | 1008.5 |
| 20260905003047 | 16 | 317 | 14.5 | 32.2 | 0.00 | 0.97 | 0.00 | 85 | 1007.9 |
| 20260905001546 | 16 | 302 | 14.5 | 25.7 | 0.00 | 0.97 | 0.00 | 86 | 1008.1 |
| 20260905000051 | 16 | 308 | 11.3 | 24.1 | 0.00 | 0.97 | 0.00 | 87 | 1007.9 |
| 20260904234555 | 16 | 300 | 12.9 | 24.1 | 0.00 | 0.97 | 0.00 | 87 | 1007.8 |
| 20260904233047 | 16 | 302 | 11.3 | 25.7 | 0.00 | 0.97 | 0.00 | 87 | 1007.6 |
| 20260904231547 | 16 | 298 | 9.7 | 20.9 | 0.00 | 0.97 | 0.00 | 87 | 1007.4 |
| 20260904230051 | 16 | 306 | 12.9 | 24.1 | 0.00 | 0.97 | 0.00 | 87 | 1007.2 |
| 20260904224555 | 16 | 319 | 12.9 | 24.1 | 0.00 | 0.97 | 0.00 | 87 | 1007.2 |
| 20260904223047 | 16 | 274 | 9.7 | 20.9 | 0.00 | 0.97 | 0.00 | 87 | 1007.1 |
| 20260904221548 | 16 | 269 | 9.7 | 32.2 | 0.00 | 0.97 | 0.00 | 86 | 1007.1 |
| 20260904220110 | 16 | 278 | 14.5 | 25.7 | 0.00 | 0.97 | 0.00 | 85 | 1006.9 |
| 20260904214548 | 16 | 263 | 11.3 | 25.7 | 0.00 | 0.97 | 0.97 | 84 | 1006.5 |
| 20260904213050 | 16 | 341 | 12.9 | 25.7 | 0.00 | 0.97 | 0.97 | 85 | 1006.4 |